createdAt,value
2019-02-05T00:00:30.190Z,8.65
2019-02-05T00:02:58.983Z,9.88
2019-02-05T00:05:28.028Z,9.03
2019-02-05T00:07:56.860Z,10.75
2019-02-05T00:10:25.689Z,7.97
2019-02-05T00:12:54.473Z,8.20
2019-02-05T00:15:23.426Z,6.85
2019-02-05T00:17:52.373Z,8.23
2019-02-05T00:20:21.337Z,7.80
2019-02-05T00:22:50.213Z,7.70
2019-02-05T00:25:19.057Z,8.03
2019-02-05T00:27:48.079Z,7.25
2019-02-05T00:30:17.330Z,10.70
2019-02-05T00:32:46.690Z,7.83
2019-02-05T00:35:17.134Z,8.40
2019-02-05T00:37:45.893Z,8.43
2019-02-05T00:40:15.452Z,9.45
2019-02-05T00:42:44.319Z,7.83
2019-02-05T00:45:15.602Z,7.65
2019-02-05T00:47:44.376Z,9.13
2019-02-05T00:50:17.564Z,6.37
2019-02-05T00:52:46.359Z,7.80
2019-02-05T00:55:19.530Z,8.63
2019-02-05T00:57:48.390Z,7.45
2019-02-05T01:00:26.174Z,7.50
2019-02-05T01:02:54.966Z,8.40
2019-02-05T01:05:23.896Z,9.28
2019-02-05T01:07:52.726Z,7.00
2019-02-05T01:10:22.760Z,7.80
2019-02-05T01:12:51.625Z,8.05
2019-02-05T01:15:24.732Z,7.37
2019-02-05T01:17:53.645Z,8.68
2019-02-05T01:20:23.252Z,7.50
2019-02-05T01:22:52.026Z,8.88
2019-02-05T01:25:21.582Z,6.87
2019-02-05T01:27:50.703Z,7.97
2019-02-05T01:30:24.507Z,8.58
2019-02-05T01:32:53.402Z,8.20
2019-02-05T01:35:22.414Z,8.88
2019-02-05T01:37:51.272Z,7.45
2019-02-05T01:40:22.920Z,9.00
2019-02-05T01:42:51.822Z,9.10
2019-02-05T01:45:22.169Z,9.10
2019-02-05T01:47:50.941Z,8.73
2019-02-05T01:50:21.961Z,10.72
2019-02-05T01:52:51.104Z,7.72
2019-02-05T01:55:20.411Z,10.35
2019-02-05T01:57:50.090Z,7.40
2019-02-05T02:00:22.957Z,8.85
2019-02-05T02:02:51.804Z,11.53
2019-02-05T02:05:20.654Z,10.58
2019-02-05T02:07:49.711Z,8.33
2019-02-05T02:10:21.693Z,9.58
2019-02-05T02:12:50.540Z,8.53
2019-02-05T02:15:19.303Z,8.30
2019-02-05T02:17:48.155Z,8.60
2019-02-05T02:20:18.856Z,10.40
2019-02-05T02:22:48.159Z,7.92
2019-02-05T02:25:17.461Z,11.45
2019-02-05T02:27:47.278Z,7.70
2019-02-05T02:30:19.419Z,7.78
2019-02-05T02:32:48.255Z,8.35
2019-02-05T02:35:17.054Z,9.55
2019-02-05T02:37:45.979Z,10.20
2019-02-05T02:40:15.144Z,7.62
2019-02-05T02:42:44.288Z,9.40
2019-02-05T02:45:14.602Z,9.13
2019-02-05T02:47:43.473Z,8.23
2019-02-05T02:50:14.791Z,8.53
2019-02-05T02:52:43.718Z,8.00
2019-02-05T02:55:12.584Z,10.40
2019-02-05T02:57:42.081Z,9.13
2019-02-05T03:00:13.476Z,8.35
2019-02-05T03:02:42.328Z,7.60
2019-02-05T03:05:13.324Z,8.55
2019-02-05T03:07:42.181Z,9.83
2019-02-05T03:10:17.243Z,7.62
2019-02-05T03:12:46.201Z,8.23
2019-02-05T03:15:15.037Z,7.78
2019-02-05T03:17:43.939Z,7.80
2019-02-05T03:20:14.941Z,8.30
2019-02-05T03:22:45.308Z,7.87
2019-02-05T03:25:23.843Z,8.08
2019-02-05T03:27:54.223Z,8.68
2019-02-05T03:30:24.780Z,8.60
2019-02-05T03:32:55.601Z,8.45
2019-02-05T03:35:24.636Z,8.08
2019-02-05T03:37:53.846Z,7.60
2019-02-05T03:40:31.987Z,8.50
2019-02-05T03:43:01.184Z,8.63
2019-02-05T03:45:30.108Z,8.10
2019-02-05T03:48:03.708Z,8.25
2019-02-05T03:50:36.158Z,7.67
2019-02-05T03:53:11.601Z,8.03
2019-02-05T03:55:52.863Z,9.35
2019-02-05T03:58:52.003Z,7.70
2019-02-05T04:01:29.755Z,7.83
2019-02-05T04:04:01.853Z,8.58
2019-02-05T04:06:45.926Z,8.63
2019-02-05T04:09:24.181Z,9.63
2019-02-05T04:12:18.822Z,8.48
2019-02-05T04:14:53.749Z,9.00
2019-02-05T04:17:28.616Z,10.68
2019-02-05T04:20:14.970Z,8.88
2019-02-05T04:23:21.571Z,10.30
2019-02-05T04:25:56.394Z,10.23
2019-02-05T04:28:56.994Z,10.10
2019-02-05T04:31:47.662Z,9.30
2019-02-05T04:34:36.306Z,8.50
2019-02-05T04:37:19.393Z,8.90
2019-02-05T04:39:57.346Z,8.88
2019-02-05T04:42:38.418Z,10.23
2019-02-05T04:45:40.329Z,8.60
2019-02-05T04:48:18.221Z,8.68
2019-02-05T04:50:50.336Z,7.67
2019-02-05T04:53:43.561Z,8.48
2019-02-05T04:56:27.189Z,9.05
2019-02-05T04:59:01.962Z,9.03
2019-02-05T05:01:51.711Z,9.03
2019-02-05T05:04:44.437Z,8.98
2019-02-05T05:07:19.482Z,8.13
2019-02-05T05:09:56.195Z,9.50
2019-02-05T05:12:26.386Z,9.38
2019-02-05T05:14:55.191Z,9.13
2019-02-05T05:17:24.189Z,10.80
2019-02-05T05:19:53.025Z,10.20
2019-02-05T05:22:21.888Z,10.23
2019-02-05T05:24:50.746Z,8.58
2019-02-05T05:27:19.637Z,9.63
2019-02-05T05:29:48.544Z,10.95
2019-02-05T05:32:17.335Z,8.75
2019-02-05T05:34:46.228Z,8.38
2019-02-05T05:37:14.317Z,9.48
2019-02-05T05:39:43.299Z,8.10
2019-02-05T05:42:12.327Z,8.70
2019-02-05T05:44:41.173Z,8.95
2019-02-05T05:47:10.011Z,9.83
2019-02-05T05:49:38.850Z,9.28
2019-02-05T05:52:07.723Z,8.10
2019-02-05T05:54:36.582Z,9.78
2019-02-05T05:57:05.433Z,9.08
2019-02-05T05:59:34.289Z,11.43
2019-02-05T06:02:03.678Z,8.65
2019-02-05T06:04:32.649Z,9.48
2019-02-05T06:07:01.433Z,9.90
2019-02-05T06:09:30.610Z,8.58
2019-02-05T06:11:59.453Z,9.73
2019-02-05T06:14:28.309Z,7.92
2019-02-05T06:16:57.199Z,10.98
2019-02-05T06:19:26.540Z,11.57
2019-02-05T06:21:55.389Z,12.93
2019-02-05T06:24:24.286Z,13.00
2019-02-05T06:26:53.274Z,17.57
2019-02-05T06:29:22.068Z,13.80
2019-02-05T06:31:50.974Z,15.72
2019-02-05T06:34:19.819Z,12.88
2019-02-05T06:36:48.678Z,11.68
2019-02-05T06:39:17.742Z,14.30
2019-02-05T06:41:46.596Z,12.33
2019-02-05T06:44:15.444Z,12.35
2019-02-05T06:46:44.295Z,13.38
2019-02-05T06:49:13.106Z,12.82
2019-02-05T06:51:42.260Z,15.98
2019-02-05T06:54:11.108Z,13.60
2019-02-05T06:56:42.317Z,18.55
2019-02-05T06:59:10.751Z,32.73
2019-02-05T07:01:39.606Z,34.05
2019-02-05T07:04:08.475Z,26.87
2019-02-05T07:06:37.333Z,37.85
2019-02-05T07:09:10.014Z,31.23
2019-02-05T07:11:38.057Z,26.87
2019-02-05T07:14:06.918Z,30.23
2019-02-05T07:16:35.805Z,28.25
2019-02-05T07:19:05.135Z,28.23
2019-02-05T07:21:33.997Z,32.45
2019-02-05T07:24:03.311Z,30.43
2019-02-05T07:26:32.253Z,29.72
2019-02-05T07:29:02.125Z,25.82
2019-02-05T07:31:31.089Z,29.95
2019-02-05T07:33:59.874Z,19.73
2019-02-05T07:36:28.721Z,22.25
2019-02-05T07:38:57.598Z,22.55
2019-02-05T07:41:26.765Z,22.32
2019-02-05T07:43:55.649Z,18.00
2019-02-05T07:46:24.546Z,23.12
2019-02-05T07:48:53.435Z,23.27
2019-02-05T07:51:22.267Z,20.80
2019-02-05T07:53:51.160Z,18.40
2019-02-05T07:56:20.061Z,18.67
2019-02-05T07:58:48.919Z,22.77
2019-02-05T08:01:17.799Z,24.43
2019-02-05T08:03:46.981Z,19.42
2019-02-05T08:06:15.846Z,26.68
2019-02-05T08:08:44.706Z,19.85
2019-02-05T08:11:13.608Z,22.50
2019-02-05T08:13:42.486Z,27.75
2019-02-05T08:16:11.717Z,19.40
2019-02-05T08:18:40.601Z,19.95
2019-02-05T08:21:09.451Z,21.15
2019-02-05T08:23:38.258Z,23.80
2019-02-05T08:26:07.122Z,19.70
2019-02-05T08:28:40.946Z,26.48
2019-02-05T08:31:06.430Z,19.37
2019-02-05T08:33:35.364Z,20.90
2019-02-05T08:36:04.688Z,19.62
2019-02-05T08:38:33.590Z,17.92
2019-02-05T08:41:02.438Z,16.90
2019-02-05T08:43:31.286Z,16.37
2019-02-05T08:46:00.167Z,19.25
2019-02-05T08:48:29.014Z,20.17
2019-02-05T08:50:58.509Z,17.07
2019-02-05T08:53:27.404Z,17.73
2019-02-05T08:55:56.314Z,16.97
2019-02-05T08:58:31.027Z,19.05
2019-02-05T09:00:55.650Z,16.27
2019-02-05T09:03:24.557Z,15.93
2019-02-05T09:05:53.409Z,16.05
2019-02-05T09:08:22.320Z,16.90
2019-02-05T09:10:51.556Z,20.60
2019-02-05T09:13:20.494Z,17.92
2019-02-05T09:15:49.345Z,15.05
2019-02-05T09:18:18.357Z,14.25
2019-02-05T09:20:47.217Z,15.93
2019-02-05T09:23:16.070Z,16.32
2019-02-05T09:25:45.568Z,18.23
2019-02-05T09:28:14.746Z,17.70
2019-02-05T09:30:43.610Z,17.70
2019-02-05T09:33:14.543Z,14.38
2019-02-05T09:35:43.366Z,15.68
2019-02-05T09:38:12.266Z,18.67
2019-02-05T09:40:41.148Z,15.05
2019-02-05T09:43:09.983Z,15.93
2019-02-05T09:45:40.908Z,13.53
2019-02-05T09:48:09.753Z,18.52
2019-02-05T09:50:44.671Z,14.90
2019-02-05T09:53:09.220Z,13.85
2019-02-05T09:55:38.062Z,17.00
2019-02-05T09:58:06.917Z,18.05
2019-02-05T10:00:38.878Z,18.00
2019-02-05T10:03:07.866Z,18.02
2019-02-05T10:05:37.047Z,18.42
2019-02-05T10:08:06.373Z,16.57
2019-02-05T10:10:35.214Z,22.35
2019-02-05T10:13:04.920Z,21.82
2019-02-05T10:15:36.076Z,21.97
2019-02-05T10:18:06.674Z,21.33
2019-02-05T10:20:35.511Z,18.82
2019-02-05T10:23:05.345Z,20.20
2019-02-05T10:25:34.202Z,17.65
2019-02-05T10:28:03.047Z,25.10
2019-02-05T10:30:38.101Z,19.42
2019-02-05T10:33:07.742Z,19.80
2019-02-05T10:35:36.584Z,20.92
2019-02-05T10:38:06.052Z,17.57
2019-02-05T10:40:34.965Z,16.17
2019-02-05T10:43:05.507Z,16.00
2019-02-05T10:45:34.728Z,20.20
2019-02-05T10:48:05.037Z,18.15
2019-02-05T10:50:33.881Z,25.70
2019-02-05T10:53:02.745Z,26.05
2019-02-05T10:55:31.651Z,27.52
2019-02-05T10:58:00.618Z,28.10
2019-02-05T11:00:32.077Z,27.93
2019-02-05T11:03:06.369Z,39.20
2019-02-05T11:05:35.520Z,31.37
2019-02-05T11:08:04.656Z,28.15
2019-02-05T11:10:33.530Z,27.15
2019-02-05T11:13:02.468Z,27.13
2019-02-05T11:15:32.876Z,28.47
2019-02-05T11:18:04.710Z,25.23
2019-02-05T11:20:33.563Z,24.12
2019-02-05T11:23:02.445Z,26.50
2019-02-05T11:25:31.346Z,22.10
2019-02-05T11:28:00.205Z,26.20
2019-02-05T11:30:32.334Z,20.70
2019-02-05T11:33:01.232Z,23.57
2019-02-05T11:35:30.394Z,22.15
2019-02-05T11:37:59.256Z,20.82
2019-02-05T11:40:31.522Z,21.55
2019-02-05T11:43:00.458Z,21.05
2019-02-05T11:45:29.369Z,20.32
2019-02-05T11:47:59.851Z,20.48
2019-02-05T11:50:28.827Z,19.17
2019-02-05T11:52:57.897Z,16.90
2019-02-05T11:55:32.315Z,22.48
2019-02-05T11:58:01.327Z,21.12
2019-02-05T12:00:34.435Z,20.48
2019-02-05T12:03:03.380Z,22.07
2019-02-05T12:05:32.273Z,23.18
2019-02-05T12:08:01.439Z,21.20
2019-02-05T12:10:30.400Z,20.62
2019-02-05T12:12:59.275Z,21.60
2019-02-05T12:15:28.129Z,21.60
2019-02-05T12:17:56.985Z,22.15
2019-02-05T12:20:25.837Z,19.98
2019-02-05T12:22:54.726Z,19.30
2019-02-05T12:25:26.894Z,18.95
2019-02-05T12:27:55.781Z,18.02
2019-02-05T12:30:30.294Z,18.10
2019-02-05T12:33:01.635Z,22.48
2019-02-05T12:35:30.054Z,19.37
2019-02-05T12:37:58.914Z,20.00
2019-02-05T12:40:28.055Z,18.10
2019-02-05T12:42:56.946Z,20.70
2019-02-05T12:45:36.766Z,20.52
2019-02-05T12:48:05.873Z,19.48
2019-02-05T12:50:40.501Z,19.35
2019-02-05T12:53:09.371Z,19.50
2019-02-05T12:55:38.696Z,18.27
2019-02-05T12:58:07.479Z,20.15
2019-02-05T13:00:55.918Z,19.65
2019-02-05T13:03:15.390Z,21.10
2019-02-05T13:05:44.658Z,19.27
2019-02-05T13:08:13.467Z,19.87
2019-02-05T13:10:44.879Z,20.85
2019-02-05T13:13:14.267Z,19.70
2019-02-05T13:15:43.126Z,20.82
2019-02-05T13:18:12.013Z,20.08
2019-02-05T13:20:41.478Z,19.75
2019-02-05T13:23:10.354Z,22.60
2019-02-05T13:25:39.484Z,21.57
2019-02-05T13:28:09.691Z,21.57
2019-02-05T13:30:38.582Z,22.00
2019-02-05T13:33:09.371Z,17.65
2019-02-05T13:35:38.164Z,20.85
2019-02-05T13:38:07.105Z,20.40
2019-02-05T13:40:36.292Z,21.02
2019-02-05T13:43:05.390Z,21.42
2019-02-05T13:45:36.293Z,18.82
2019-02-05T13:48:05.919Z,20.77
2019-02-05T13:50:34.749Z,20.65
2019-02-05T13:53:03.710Z,19.10
2019-02-05T13:55:35.104Z,20.97
2019-02-05T13:58:04.031Z,20.25
2019-02-05T14:00:41.878Z,20.52
2019-02-05T14:03:11.301Z,22.00
2019-02-05T14:05:40.168Z,20.35
2019-02-05T14:08:09.023Z,19.62
2019-02-05T14:10:43.502Z,20.97
2019-02-05T14:13:12.356Z,19.35
2019-02-05T14:15:43.655Z,18.85
2019-02-05T14:18:12.507Z,20.65
2019-02-05T14:20:41.371Z,18.87
2019-02-05T14:23:10.174Z,21.02
2019-02-05T14:25:39.435Z,20.88
2019-02-05T14:28:08.239Z,19.40
2019-02-05T14:30:45.681Z,20.65
2019-02-05T14:33:14.467Z,21.45
2019-02-05T14:35:43.403Z,18.05
2019-02-05T14:38:12.342Z,22.30
2019-02-05T14:40:41.139Z,23.10
2019-02-05T14:43:09.920Z,25.70
2019-02-05T14:45:39.290Z,22.60
2019-02-05T14:48:08.242Z,21.05
2019-02-05T14:50:42.504Z,22.13
2019-02-05T14:53:11.712Z,20.72
2019-02-05T14:55:40.502Z,21.30
2019-02-05T14:58:10.733Z,20.90
2019-02-05T15:00:40.090Z,20.45
2019-02-05T15:03:11.454Z,19.62
2019-02-05T15:05:41.343Z,20.77
2019-02-05T15:08:11.289Z,17.80
2019-02-05T15:10:40.073Z,18.87
2019-02-05T15:13:08.937Z,18.02
2019-02-05T15:15:37.735Z,20.20
2019-02-05T15:18:08.430Z,19.60
2019-02-05T15:20:42.805Z,17.05
2019-02-05T15:23:11.975Z,21.68
2019-02-05T15:25:41.013Z,19.12
2019-02-05T15:28:10.408Z,19.07
2019-02-05T15:30:41.132Z,18.52
2019-02-05T15:33:16.311Z,18.95
2019-02-05T15:35:52.369Z,24.07
2019-02-05T15:38:21.186Z,20.55
2019-02-05T15:40:50.335Z,20.48
2019-02-05T15:43:19.127Z,20.90
2019-02-05T15:45:47.991Z,22.65
2019-02-05T15:48:16.865Z,20.25
2019-02-05T15:50:45.722Z,21.68
2019-02-05T15:53:14.590Z,19.00
2019-02-05T15:55:44.086Z,17.17
2019-02-05T15:58:12.901Z,18.92
2019-02-05T16:00:41.777Z,18.92
2019-02-05T16:03:10.645Z,17.00
2019-02-05T16:05:39.471Z,16.45
2019-02-05T16:08:08.271Z,18.00
2019-02-05T16:10:37.450Z,16.23
2019-02-05T16:13:06.218Z,33.73
2019-02-05T16:15:35.050Z,20.45
2019-02-05T16:18:04.630Z,16.65
2019-02-05T16:20:33.419Z,20.55
2019-02-05T16:23:02.371Z,19.95
2019-02-05T16:25:31.395Z,16.55
2019-02-05T16:28:00.253Z,26.17
2019-02-05T16:30:30.487Z,16.17
2019-02-05T16:32:59.343Z,22.67
2019-02-05T16:35:28.211Z,20.40
2019-02-05T16:37:56.984Z,20.32
2019-02-05T16:40:37.480Z,18.15
2019-02-05T16:43:06.610Z,20.15
2019-02-05T16:45:35.460Z,17.48
2019-02-05T16:48:04.877Z,20.92
2019-02-05T16:50:42.400Z,20.08
2019-02-05T16:53:11.759Z,18.17
2019-02-05T16:55:40.579Z,19.55
2019-02-05T16:58:09.439Z,16.80
2019-02-05T17:00:39.416Z,16.85
2019-02-05T17:03:08.387Z,16.35
2019-02-05T17:05:40.923Z,19.57
2019-02-05T17:08:10.146Z,16.93
2019-02-05T17:10:39.040Z,14.68
2019-02-05T17:13:07.907Z,17.70
2019-02-05T17:15:36.800Z,15.05
2019-02-05T17:18:06.031Z,16.30
2019-02-05T17:20:36.709Z,22.30
2019-02-05T17:23:05.858Z,17.07
2019-02-05T17:25:37.989Z,23.42
2019-02-05T17:28:07.575Z,15.53
2019-02-05T17:30:40.555Z,17.00
2019-02-05T17:33:09.322Z,16.82
2019-02-05T17:35:38.128Z,16.10
2019-02-05T17:38:08.458Z,20.37
2019-02-05T17:40:37.313Z,14.85
2019-02-05T17:43:06.940Z,20.52
2019-02-05T17:45:40.259Z,24.45
2019-02-05T17:48:14.428Z,19.20
2019-02-05T17:50:43.587Z,18.20
2019-02-05T17:53:12.373Z,17.42
2019-02-05T17:55:41.285Z,16.67
2019-02-05T17:58:10.073Z,16.62
2019-02-05T18:00:43.272Z,16.52
2019-02-05T18:03:12.129Z,17.57
2019-02-05T18:05:41.248Z,16.42
2019-02-05T18:08:10.209Z,17.55
2019-02-05T18:10:41.925Z,15.43
2019-02-05T18:13:09.624Z,15.63
2019-02-05T18:15:40.773Z,18.07
2019-02-05T18:18:09.746Z,14.85
2019-02-05T18:20:38.603Z,20.88
2019-02-05T18:23:07.653Z,19.23
2019-02-05T18:25:37.113Z,19.12
2019-02-05T18:28:05.961Z,16.75
2019-02-05T18:30:37.006Z,28.25
2019-02-05T18:33:06.881Z,20.30
2019-02-05T18:35:35.743Z,18.48
2019-02-05T18:38:10.455Z,21.75
2019-02-05T18:40:39.317Z,20.30
2019-02-05T18:43:08.201Z,20.32
2019-02-05T18:45:37.060Z,20.82
2019-02-05T18:48:05.866Z,18.50
2019-02-05T18:50:34.687Z,21.17
2019-02-05T18:53:03.503Z,18.85
2019-02-05T18:55:38.197Z,22.45
2019-02-05T18:58:09.628Z,17.23
2019-02-05T19:00:43.228Z,21.27
2019-02-05T19:03:16.326Z,18.42
2019-02-05T19:05:42.774Z,20.20
2019-02-05T19:08:11.895Z,20.57
2019-02-05T19:10:40.817Z,19.55
2019-02-05T19:13:09.896Z,20.12
2019-02-05T19:15:40.393Z,20.82
2019-02-05T19:18:10.481Z,18.73
2019-02-05T19:20:39.300Z,20.05
2019-02-05T19:23:09.773Z,27.85
2019-02-05T19:25:49.485Z,22.82
2019-02-05T19:28:28.737Z,23.47
2019-02-05T19:31:08.179Z,23.98
2019-02-05T19:33:37.027Z,19.32
2019-02-05T19:36:06.100Z,20.68
2019-02-05T19:38:37.781Z,24.00
2019-02-05T19:41:06.606Z,25.52
2019-02-05T19:43:35.426Z,21.12
2019-02-05T19:46:21.024Z,21.70
2019-02-05T19:48:51.844Z,21.25
2019-02-05T19:51:20.684Z,23.40
2019-02-05T19:53:49.594Z,22.67
2019-02-05T19:56:18.462Z,20.82
2019-02-05T19:58:47.308Z,22.27
2019-02-05T20:01:18.528Z,21.37
2019-02-05T20:03:46.700Z,21.70
2019-02-05T20:06:15.580Z,24.25
2019-02-05T20:08:44.429Z,19.05
2019-02-05T20:11:13.305Z,21.57
2019-02-05T20:13:42.167Z,26.97
2019-02-05T20:16:10.984Z,22.02
2019-02-05T20:18:39.852Z,26.57
2019-02-05T20:21:08.634Z,24.60
2019-02-05T20:23:37.476Z,23.42
2019-02-05T20:26:06.410Z,20.48
2019-02-05T20:28:35.562Z,22.32
2019-02-05T20:31:04.434Z,21.97
2019-02-05T20:33:33.302Z,22.45
2019-02-05T20:36:02.111Z,25.15
2019-02-05T20:38:31.061Z,29.15
2019-02-05T20:40:59.979Z,24.37
2019-02-05T20:43:28.936Z,25.92
2019-02-05T20:45:58.303Z,22.82
2019-02-05T20:48:29.687Z,23.87
2019-02-05T20:50:57.682Z,25.32
2019-02-05T20:53:26.570Z,23.20
2019-02-05T20:55:55.427Z,22.85
2019-02-05T20:58:24.295Z,22.55
2019-02-05T21:00:53.265Z,21.87
2019-02-05T21:03:22.448Z,20.60
2019-02-05T21:05:51.283Z,21.57
2019-02-05T21:08:20.148Z,26.73
2019-02-05T21:10:49.006Z,26.57
2019-02-05T21:13:17.927Z,22.42
2019-02-05T21:15:46.724Z,24.90
2019-02-05T21:18:17.473Z,24.75
2019-02-05T21:20:46.114Z,25.37
2019-02-05T21:23:15.021Z,22.05
2019-02-05T21:25:43.797Z,21.68
2019-02-05T21:28:12.580Z,21.87
2019-02-05T21:30:41.373Z,22.77
2019-02-05T21:33:10.247Z,29.23
2019-02-05T21:35:39.735Z,21.35
2019-02-05T21:38:08.746Z,23.12
2019-02-05T21:40:37.567Z,22.82
2019-02-05T21:43:06.420Z,22.48
2019-02-05T21:45:35.349Z,20.43
2019-02-05T21:48:04.270Z,21.48
2019-02-05T21:50:33.212Z,20.92
2019-02-05T21:53:02.327Z,22.93
2019-02-05T21:55:31.181Z,22.50
2019-02-05T21:57:59.999Z,22.70
2019-02-05T22:00:33.560Z,22.58
2019-02-05T22:03:02.659Z,21.10
2019-02-05T22:05:32.740Z,17.82
2019-02-05T22:08:01.872Z,20.40
2019-02-05T22:10:30.794Z,20.92
2019-02-05T22:13:00.022Z,22.10
2019-02-05T22:15:29.413Z,24.10
2019-02-05T22:17:58.362Z,24.37
2019-02-05T22:20:29.004Z,21.33
2019-02-05T22:22:58.069Z,23.22
2019-02-05T22:25:29.541Z,21.68
2019-02-05T22:27:58.694Z,22.60
2019-02-05T22:30:32.519Z,22.45
2019-02-05T22:33:01.393Z,21.65
2019-02-05T22:35:30.305Z,21.93
2019-02-05T22:37:59.374Z,19.70
2019-02-05T22:40:28.452Z,20.32
2019-02-05T22:42:57.318Z,18.80
2019-02-05T22:45:28.869Z,24.15
2019-02-05T22:47:57.760Z,27.27
2019-02-05T22:50:37.075Z,31.65
2019-02-05T22:53:08.921Z,28.23
2019-02-05T22:55:37.767Z,28.83
2019-02-05T22:58:07.121Z,29.12
2019-02-05T23:00:49.863Z,25.55
2019-02-05T23:03:24.939Z,27.48
2019-02-05T23:06:00.273Z,26.75
2019-02-05T23:08:29.155Z,28.10
2019-02-05T23:11:23.711Z,28.85
2019-02-05T23:13:52.774Z,25.80
2019-02-05T23:16:21.854Z,26.85
2019-02-05T23:18:50.642Z,26.23
2019-02-05T23:21:19.554Z,24.43
2019-02-05T23:23:48.397Z,26.27
2019-02-05T23:26:17.890Z,25.10
2019-02-05T23:28:46.729Z,23.52
2019-02-05T23:31:15.512Z,26.90
2019-02-05T23:33:44.813Z,25.35
2019-02-05T23:36:13.760Z,25.02
2019-02-05T23:38:42.607Z,24.47
2019-02-05T23:41:12.060Z,22.42
2019-02-05T23:43:41.017Z,22.82
2019-02-05T23:46:09.966Z,23.50
2019-02-05T23:48:38.750Z,24.15
2019-02-05T23:51:07.608Z,24.70
2019-02-05T23:53:36.491Z,22.82
2019-02-05T23:56:05.346Z,21.35
2019-02-05T23:58:34.209Z,23.05
